createdAt,value
2023-02-01T00:00:53.128Z,7.82
2023-02-01T00:03:57.242Z,6.03
2023-02-01T00:07:00.011Z,6.68
2023-02-01T00:10:04.367Z,8.40
2023-02-01T00:13:07.256Z,6.90
2023-02-01T00:16:13.351Z,7.90
2023-02-01T00:19:17.574Z,7.78
2023-02-01T00:22:20.329Z,6.10
2023-02-01T00:25:23.022Z,13.50
2023-02-01T00:28:25.837Z,26.25
2023-02-01T00:31:29.686Z,13.30
2023-02-01T00:34:34.019Z,12.82
2023-02-01T00:37:36.637Z,7.35
2023-02-01T00:40:39.383Z,8.07
2023-02-01T00:43:42.878Z,7.25
2023-02-01T00:46:45.669Z,7.38
2023-02-01T00:49:49.735Z,6.05
2023-02-01T00:52:52.366Z,6.85
2023-02-01T00:55:55.178Z,6.63
2023-02-01T00:58:57.913Z,6.53
2023-02-01T01:02:00.648Z,4.53
2023-02-01T01:05:06.005Z,4.20
2023-02-01T01:08:08.722Z,5.60
2023-02-01T01:11:13.971Z,6.57
2023-02-01T01:14:16.670Z,5.43
2023-02-01T01:17:19.613Z,4.53
2023-02-01T01:20:24.242Z,5.53
2023-02-01T01:23:27.588Z,5.65
2023-02-01T01:26:31.052Z,5.07
2023-02-01T01:29:33.769Z,8.88
2023-02-01T01:32:36.483Z,8.05
2023-02-01T01:35:40.530Z,9.48
2023-02-01T01:38:43.992Z,10.80
2023-02-01T01:41:47.059Z,15.80
2023-02-01T01:45:00.694Z,11.98
2023-02-01T01:48:09.673Z,15.25
2023-02-01T01:51:17.502Z,9.38
2023-02-01T01:54:24.803Z,7.78
2023-02-01T01:57:32.463Z,9.13
2023-02-01T02:00:36.090Z,9.45
2023-02-01T02:03:42.083Z,10.50
2023-02-01T02:06:51.134Z,12.00
2023-02-01T02:10:00.561Z,9.48
2023-02-01T02:13:04.279Z,11.10
2023-02-01T02:16:27.171Z,12.18
2023-02-01T02:20:01.591Z,14.48
2023-02-01T02:23:46.026Z,9.93
2023-02-01T02:27:24.017Z,7.55
2023-02-01T02:30:52.231Z,10.50
2023-02-01T02:34:13.184Z,25.75
2023-02-01T02:37:26.667Z,7.65
2023-02-01T02:40:34.917Z,8.13
2023-02-01T02:44:05.920Z,7.28
2023-02-01T02:47:27.332Z,6.70
2023-02-01T02:50:56.092Z,5.95
2023-02-01T02:54:45.018Z,7.53
2023-02-01T02:58:06.341Z,18.27
2023-02-01T03:01:28.053Z,20.65
2023-02-01T03:04:30.779Z,10.03
2023-02-01T03:07:54.686Z,8.60
2023-02-01T03:11:01.012Z,8.82
2023-02-01T03:14:07.394Z,4.82
2023-02-01T03:17:14.464Z,6.47
2023-02-01T03:20:21.082Z,8.60
2023-02-01T03:23:30.493Z,9.27
2023-02-01T03:26:39.237Z,11.27
2023-02-01T03:29:50.462Z,7.63
2023-02-01T03:33:00.171Z,7.50
2023-02-01T03:36:16.073Z,10.93
2023-02-01T03:39:26.572Z,11.68
2023-02-01T03:42:36.044Z,12.57
2023-02-01T03:45:43.575Z,18.50
2023-02-01T03:48:48.862Z,16.10
2023-02-01T03:51:52.809Z,8.30
2023-02-01T03:54:58.193Z,14.27
2023-02-01T03:58:07.230Z,14.63
2023-02-01T04:01:10.341Z,9.95
2023-02-01T04:04:20.998Z,9.35
2023-02-01T04:07:27.132Z,10.10
2023-02-01T04:10:31.371Z,14.10
2023-02-01T04:13:34.191Z,20.80
2023-02-01T04:16:37.098Z,43.95
2023-02-01T04:19:39.727Z,74.95
2023-02-01T04:22:42.873Z,49.30
2023-02-01T04:25:46.987Z,26.15
2023-02-01T04:28:49.789Z,14.38
2023-02-01T04:31:52.517Z,18.08
2023-02-01T04:34:55.216Z,8.68
2023-02-01T04:37:57.881Z,8.27
2023-02-01T04:41:01.976Z,20.40
2023-02-01T04:44:04.923Z,16.33
2023-02-01T04:47:07.591Z,27.05
2023-02-01T04:50:11.530Z,19.73
2023-02-01T04:53:16.204Z,14.73
2023-02-01T04:56:20.173Z,13.70
2023-02-01T04:59:23.386Z,10.52
2023-02-01T05:02:26.639Z,20.95
2023-02-01T05:05:30.175Z,18.13
2023-02-01T05:08:33.692Z,10.40
2023-02-01T05:11:56.670Z,18.13
2023-02-01T05:14:59.371Z,19.90
2023-02-01T05:18:01.966Z,12.38
2023-02-01T05:21:04.818Z,13.40
2023-02-01T05:24:14.150Z,10.07
2023-02-01T05:27:18.167Z,11.90
2023-02-01T05:30:20.995Z,11.10
2023-02-01T05:33:23.701Z,18.80
2023-02-01T05:36:27.011Z,15.25
2023-02-01T05:39:29.746Z,13.40
2023-02-01T05:42:33.882Z,13.32
2023-02-01T05:45:36.565Z,11.45
2023-02-01T05:48:39.345Z,17.98
2023-02-01T05:51:42.060Z,8.15
2023-02-01T05:54:44.681Z,7.07
2023-02-01T05:57:48.795Z,7.50
2023-02-01T06:00:52.566Z,8.85
2023-02-01T06:03:55.417Z,12.45
2023-02-01T06:06:58.057Z,17.10
2023-02-01T06:10:00.756Z,15.30
2023-02-01T06:13:05.041Z,12.30
2023-02-01T06:16:09.038Z,8.05
2023-02-01T06:19:11.773Z,14.15
2023-02-01T06:22:14.490Z,18.77
2023-02-01T06:25:18.097Z,15.57
2023-02-01T06:28:22.610Z,14.48
2023-02-01T06:31:26.821Z,20.02
2023-02-01T06:34:29.746Z,16.90
2023-02-01T06:37:32.380Z,17.05
2023-02-01T06:40:36.362Z,8.73
2023-02-01T06:43:40.926Z,12.00
2023-02-01T06:46:43.980Z,12.75
2023-02-01T06:49:46.819Z,14.35
2023-02-01T06:52:49.670Z,12.63
2023-02-01T06:55:56.448Z,20.33
2023-02-01T07:03:34.722Z,11.60
2023-02-01T07:07:07.178Z,15.98
2023-02-01T07:10:51.960Z,14.90
2023-02-01T07:14:13.833Z,15.40
2023-02-01T07:17:16.665Z,12.75
2023-02-01T07:20:19.773Z,13.20
2023-02-01T07:23:23.030Z,10.95
2023-02-01T07:26:53.075Z,14.32
2023-02-01T07:31:29.617Z,13.43
2023-02-01T07:35:00.039Z,13.35
2023-02-01T07:38:22.825Z,13.43
2023-02-01T07:42:15.421Z,11.48
2023-02-01T07:45:43.118Z,23.95
2023-02-01T07:50:11.515Z,15.80
2023-02-01T07:53:14.441Z,10.25
2023-02-01T07:56:19.954Z,9.93
2023-02-01T07:59:22.913Z,11.25
2023-02-01T08:02:25.687Z,13.48
2023-02-01T08:05:31.570Z,16.33
2023-02-01T08:08:34.505Z,9.77
2023-02-01T08:11:38.917Z,16.00
2023-02-01T08:14:41.949Z,6.75
2023-02-01T08:17:48.128Z,10.20
2023-02-01T08:20:52.359Z,6.60
2023-02-01T08:23:57.243Z,7.00
2023-02-01T08:27:01.743Z,7.20
2023-02-01T08:30:05.843Z,6.03
2023-02-01T08:33:08.944Z,13.60
2023-02-01T08:36:15.530Z,10.77
2023-02-01T08:39:18.864Z,7.05
2023-02-01T08:42:39.871Z,7.65
2023-02-01T08:45:45.118Z,7.20
2023-02-01T08:48:51.561Z,7.45
2023-02-01T08:51:58.512Z,7.50
2023-02-01T08:55:06.753Z,5.47
2023-02-01T08:58:11.732Z,6.93
2023-02-01T09:01:19.456Z,7.18
2023-02-01T09:04:36.955Z,6.05
2023-02-01T09:10:56.168Z,5.97
2023-02-01T09:11:21.482Z,7.55
2023-02-01T09:14:41.424Z,8.48
2023-02-01T09:17:50.954Z,5.75
2023-02-01T09:20:55.376Z,7.32
2023-02-01T09:24:02.560Z,4.37
2023-02-01T09:27:05.620Z,5.85
2023-02-01T09:30:14.615Z,5.38
2023-02-01T09:33:20.878Z,6.13
2023-02-01T09:36:26.721Z,6.45
2023-02-01T09:39:43.937Z,13.47
2023-02-01T09:43:19.037Z,9.93
2023-02-01T09:46:25.708Z,6.95
2023-02-01T09:49:31.343Z,6.00
2023-02-01T09:52:41.773Z,4.47
2023-02-01T09:55:50.726Z,4.90
2023-02-01T09:59:02.376Z,8.93
2023-02-01T10:02:14.967Z,5.47
2023-02-01T10:05:27.350Z,6.97
2023-02-01T10:08:40.165Z,7.75
2023-02-01T10:11:56.874Z,6.23
2023-02-01T10:15:10.446Z,4.53
2023-02-01T10:18:36.156Z,7.18
2023-02-01T10:21:52.088Z,4.43
2023-02-01T10:25:04.027Z,4.97
2023-02-01T10:28:16.639Z,4.70
2023-02-01T10:31:24.653Z,5.25
2023-02-01T10:34:31.238Z,9.40
2023-02-01T10:37:35.237Z,5.72
2023-02-01T10:40:39.724Z,5.30
2023-02-01T10:43:45.531Z,7.67
2023-02-01T10:46:48.276Z,6.55
2023-02-01T10:49:58.555Z,5.20
2023-02-01T10:53:07.840Z,5.38
2023-02-01T10:56:12.253Z,5.95
2023-02-01T10:59:19.767Z,11.20
2023-02-01T11:02:29.051Z,7.85
2023-02-01T11:05:45.565Z,9.38
2023-02-01T11:08:51.807Z,7.18
2023-02-01T11:11:59.987Z,12.95
2023-02-01T11:15:15.604Z,11.80
2023-02-01T11:18:20.357Z,12.20
2023-02-01T11:21:24.053Z,9.52
2023-02-01T11:24:30.275Z,8.57
2023-02-01T11:27:38.148Z,7.20
2023-02-01T11:30:48.286Z,8.13
2023-02-01T11:33:55.593Z,6.70
2023-02-01T11:37:05.783Z,9.48
2023-02-01T11:40:27.655Z,7.38
2023-02-01T11:43:30.524Z,8.13
2023-02-01T11:46:36.143Z,11.50
2023-02-01T11:49:39.806Z,17.15
2023-02-01T11:53:10.077Z,7.68
2023-02-01T11:56:22.869Z,7.35
2023-02-01T11:59:43.073Z,10.02
2023-02-01T12:03:29.075Z,7.00
2023-02-01T12:06:45.045Z,5.25
2023-02-01T12:10:16.818Z,7.03
2023-02-01T12:13:35.030Z,4.07
2023-02-01T12:16:57.363Z,5.88
2023-02-01T12:20:18.520Z,6.87
2023-02-01T12:23:37.972Z,10.50
2023-02-01T12:26:53.535Z,6.10
2023-02-01T12:30:19.613Z,4.68
2023-02-01T12:33:35.667Z,11.40
2023-02-01T12:36:53.706Z,8.57
2023-02-01T12:40:06.069Z,11.30
2023-02-01T12:43:16.379Z,5.60
2023-02-01T12:46:24.764Z,10.18
2023-02-01T12:49:44.632Z,8.13
2023-02-01T12:52:50.918Z,16.13
2023-02-01T12:55:56.720Z,8.32
2023-02-01T12:59:03.645Z,9.52
2023-02-01T13:02:17.254Z,7.60
2023-02-01T13:05:22.794Z,6.88
2023-02-01T13:08:37.674Z,10.70
2023-02-01T13:11:46.236Z,7.57
2023-02-01T13:14:56.172Z,5.03
2023-02-01T13:18:06.882Z,13.20
2023-02-01T13:21:14.186Z,6.97
2023-02-01T13:24:32.196Z,6.40
2023-02-01T13:27:38.531Z,7.43
2023-02-01T13:30:59.965Z,6.38
2023-02-01T13:38:56.088Z,6.75
2023-02-01T13:42:03.165Z,9.67
2023-02-01T13:45:18.610Z,5.55
2023-02-01T13:48:27.213Z,4.18
2023-02-01T13:51:39.091Z,5.30
2023-02-01T13:54:41.886Z,5.80
2023-02-01T13:57:47.047Z,7.77
2023-02-01T14:00:52.290Z,8.60
2023-02-01T14:03:56.641Z,5.85
2023-02-01T14:06:59.787Z,8.00
2023-02-01T14:10:35.771Z,7.75
2023-02-01T14:13:41.465Z,8.87
2023-02-01T14:17:04.761Z,8.45
2023-02-01T14:20:47.175Z,7.53
2023-02-01T14:24:01.139Z,11.20
2023-02-01T14:27:19.227Z,12.65
2023-02-01T14:30:24.843Z,9.37
2023-02-01T14:33:31.354Z,10.93
2023-02-01T14:36:44.196Z,7.18
2023-02-01T14:39:56.559Z,19.33
2023-02-01T14:42:59.479Z,18.02
2023-02-01T14:46:03.731Z,25.07
2023-02-01T14:49:07.253Z,21.38
2023-02-01T14:52:17.081Z,13.32
2023-02-01T14:55:26.654Z,14.80
2023-02-01T14:58:37.247Z,16.88
2023-02-01T15:01:51.221Z,15.43
2023-02-01T15:04:56.755Z,6.05
2023-02-01T15:08:06.815Z,11.82
2023-02-01T15:11:14.964Z,11.60
2023-02-01T15:14:17.891Z,18.67
2023-02-01T15:17:24.662Z,9.03
2023-02-01T15:20:29.081Z,9.13
2023-02-01T15:23:34.355Z,10.40
2023-02-01T15:26:37.054Z,16.27
2023-02-01T15:29:40.146Z,17.05
2023-02-01T15:32:44.352Z,14.30
2023-02-01T15:35:48.902Z,12.20
2023-02-01T15:39:24.168Z,16.33
2023-02-01T15:42:26.870Z,19.50
2023-02-01T15:45:33.287Z,21.05
2023-02-01T15:48:40.559Z,15.10
2023-02-01T15:51:46.714Z,15.60
2023-02-01T15:54:53.711Z,11.18
2023-02-01T15:57:56.474Z,11.77
2023-02-01T16:01:02.627Z,15.88
2023-02-01T16:04:17.663Z,14.93
2023-02-01T16:07:28.063Z,12.57
2023-02-01T16:10:33.147Z,13.18
2023-02-01T16:13:36.043Z,13.50
2023-02-01T16:16:38.834Z,22.58
2023-02-01T16:19:41.598Z,27.77
2023-02-01T16:22:44.321Z,36.10
2023-02-01T16:25:48.509Z,20.27
2023-02-01T16:28:51.280Z,8.35
2023-02-01T16:32:17.911Z,14.15
2023-02-01T16:35:24.907Z,18.27
2023-02-01T16:38:28.231Z,18.40
2023-02-01T16:41:32.373Z,21.27
2023-02-01T16:44:35.008Z,24.02
2023-02-01T16:47:40.142Z,20.15
2023-02-01T16:50:51.381Z,13.37
2023-02-01T16:53:55.288Z,14.15
2023-02-01T16:56:59.608Z,14.88
2023-02-01T17:00:18.127Z,15.45
2023-02-01T17:03:26.375Z,24.65
2023-02-01T17:06:30.425Z,22.27
2023-02-01T17:09:34.000Z,32.45
2023-02-01T17:12:38.120Z,38.70
2023-02-01T17:15:41.295Z,30.13
2023-02-01T17:18:44.127Z,48.72
2023-02-01T17:21:53.267Z,39.87
2023-02-01T17:24:56.378Z,51.20
2023-02-01T17:28:01.017Z,46.03
2023-02-01T17:31:04.945Z,30.60
2023-02-01T17:34:08.943Z,23.83
2023-02-01T17:37:32.079Z,71.47
2023-02-01T17:40:35.670Z,60.58
2023-02-01T17:43:40.730Z,61.08
2023-02-01T17:46:44.010Z,63.10
2023-02-01T17:49:49.922Z,71.60
2023-02-01T17:52:53.368Z,76.40
2023-02-01T17:55:58.418Z,60.83
2023-02-01T17:59:02.652Z,78.40
2023-02-01T18:02:17.705Z,74.53
2023-02-01T18:05:24.160Z,43.95
2023-02-01T18:08:29.216Z,43.57
2023-02-01T18:11:33.613Z,41.38
2023-02-01T18:14:37.992Z,37.67
2023-02-01T18:17:41.456Z,30.83
2023-02-01T18:20:46.332Z,24.73
2023-02-01T18:23:49.873Z,53.53
2023-02-01T18:26:52.689Z,34.05
2023-02-01T18:29:57.512Z,20.52
2023-02-01T18:33:01.771Z,21.90
2023-02-01T18:36:04.955Z,22.02
2023-02-01T18:39:08.150Z,23.03
2023-02-01T18:42:11.929Z,22.73
2023-02-01T18:45:28.673Z,24.75
2023-02-01T18:48:31.763Z,26.73
2023-02-01T18:51:35.278Z,18.45
2023-02-01T18:54:44.376Z,23.37
2023-02-01T18:57:53.252Z,21.23
2023-02-01T19:01:04.868Z,29.83
2023-02-01T19:04:11.900Z,30.77
2023-02-01T19:07:22.960Z,25.27
2023-02-01T19:10:25.983Z,31.07
2023-02-01T19:13:31.606Z,24.98
2023-02-01T19:16:39.729Z,26.10
2023-02-01T19:19:44.527Z,30.40
2023-02-01T19:22:47.778Z,46.35
2023-02-01T19:25:50.771Z,44.47
2023-02-01T19:28:53.827Z,61.30
2023-02-01T19:31:58.016Z,56.17
2023-02-01T19:35:00.736Z,58.28
2023-02-01T19:38:03.901Z,66.85
2023-02-01T19:41:06.993Z,67.77
2023-02-01T19:44:10.032Z,67.18
2023-02-01T19:47:14.641Z,35.72
2023-02-01T19:50:19.857Z,26.73
2023-02-01T19:53:27.720Z,22.67
2023-02-01T19:56:30.808Z,22.93
2023-02-01T19:59:33.874Z,21.92
2023-02-01T20:02:37.466Z,20.13
2023-02-01T20:05:40.515Z,17.55
2023-02-01T20:08:43.630Z,16.92
2023-02-01T20:11:47.622Z,15.90
2023-02-01T20:14:50.449Z,17.63
2023-02-01T20:17:57.280Z,21.85
2023-02-01T20:20:59.994Z,23.20
2023-02-01T20:24:03.729Z,24.77
2023-02-01T20:27:10.400Z,20.90
2023-02-01T20:30:19.838Z,21.95
2023-02-01T20:33:26.652Z,47.63
2023-02-01T20:36:30.689Z,36.97
2023-02-01T20:39:33.724Z,32.72
2023-02-01T20:42:36.926Z,37.73
2023-02-01T20:45:40.549Z,38.38
2023-02-01T20:48:48.077Z,33.88
2023-02-01T20:51:50.958Z,32.50
2023-02-01T20:54:54.007Z,32.85
2023-02-01T20:57:58.256Z,29.80
2023-02-01T21:01:01.868Z,38.30
2023-02-01T21:04:06.496Z,35.60
2023-02-01T21:07:09.296Z,29.80
2023-02-01T21:10:12.574Z,26.83
2023-02-01T21:13:15.343Z,33.20
2023-02-01T21:16:20.134Z,35.47
2023-02-01T21:19:29.084Z,20.15
2023-02-01T21:22:32.429Z,13.20
2023-02-01T21:25:39.612Z,16.58
2023-02-01T21:28:42.432Z,19.43
2023-02-01T21:31:45.815Z,25.55
2023-02-01T21:34:50.454Z,33.38
2023-02-01T21:37:53.260Z,32.78
2023-02-01T21:41:14.331Z,30.80
2023-02-01T21:44:17.615Z,22.73
2023-02-01T21:47:26.032Z,22.23
2023-02-01T21:50:31.637Z,18.52
2023-02-01T21:53:34.728Z,17.35
2023-02-01T21:56:37.877Z,24.40
2023-02-01T21:59:41.548Z,16.67
2023-02-01T22:02:44.371Z,10.20
2023-02-01T22:05:51.314Z,12.30
2023-02-01T22:08:54.452Z,10.00
2023-02-01T22:11:57.936Z,7.53
2023-02-01T22:15:00.633Z,6.17
2023-02-01T22:18:03.265Z,11.73
2023-02-01T22:21:07.390Z,6.22
2023-02-01T22:24:11.513Z,7.28
2023-02-01T22:27:14.773Z,7.20
2023-02-01T22:30:17.908Z,5.67
2023-02-01T22:33:20.950Z,4.82
2023-02-01T22:36:25.284Z,10.55
2023-02-01T22:39:28.040Z,7.70
2023-02-01T22:42:31.812Z,5.20
2023-02-01T22:45:37.462Z,6.63
2023-02-01T22:48:41.724Z,5.95
2023-02-01T22:51:46.333Z,7.82
2023-02-01T22:54:48.999Z,4.95
2023-02-01T22:57:51.655Z,4.85
2023-02-01T23:00:54.363Z,7.73
2023-02-01T23:03:57.844Z,6.47
2023-02-01T23:07:01.885Z,6.13
2023-02-01T23:10:05.079Z,8.45
2023-02-01T23:13:07.835Z,7.72
2023-02-01T23:16:12.404Z,5.10
2023-02-01T23:19:15.437Z,5.57
2023-02-01T23:22:19.521Z,8.93
2023-02-01T23:25:22.383Z,7.07
2023-02-01T23:28:26.230Z,10.38
2023-02-01T23:31:30.944Z,8.97
2023-02-01T23:34:33.920Z,9.02
2023-02-01T23:37:37.935Z,9.35
2023-02-01T23:40:40.534Z,9.90
2023-02-01T23:43:58.622Z,9.93
2023-02-01T23:47:01.508Z,10.93
2023-02-01T23:50:04.603Z,10.48
2023-02-01T23:53:08.598Z,11.98
2023-02-01T23:56:18.048Z,11.68
2023-02-01T23:59:22.340Z,10.98
